Terminal Aerodrome Forecast
Issued by NWS

Home | Current Version | Previous Version | Text Only | Print | Product List | Glossary Off
Versions: 1 2 3 4 5 6 7 8 9 10 11 12

437
FTUS43 KBIS 041120
TAFJMS
TAF
KJMS 041120Z 0412/0512 33011KT P6SM VCSH OVC025
     FM042100 19006KT P6SM BKN100
     FM050900 18009KT 5SM BR OVC050=

USA.gov is the U.S. government's official web portal to all federal, state and local government web resources and services.